sensor_id;sensor_type;location;lat;lon;timestamp;pressure;altitude;pressure_sealevel;temperature;humidity
11085;BME280;5596;46.826;8.650;2023-04-20T00:00:41;95853.00;;;8.83;100.00
11085;BME280;5596;46.826;8.650;2023-04-20T00:03:08;95842.91;;;8.78;100.00
11085;BME280;5596;46.826;8.650;2023-04-20T00:05:36;95844.44;;;8.74;100.00
11085;BME280;5596;46.826;8.650;2023-04-20T00:08:03;95840.69;;;8.75;100.00
11085;BME280;5596;46.826;8.650;2023-04-20T00:10:31;95839.16;;;8.67;100.00
11085;BME280;5596;46.826;8.650;2023-04-20T00:12:58;95835.88;;;8.65;100.00
11085;BME280;5596;46.826;8.650;2023-04-20T00:15:25;95833.13;;;8.54;100.00
11085;BME280;5596;46.826;8.650;2023-04-20T00:17:51;95829.63;;;8.53;100.00
11085;BME280;5596;46.826;8.650;2023-04-20T00:20:18;95837.03;;;8.58;100.00
11085;BME280;5596;46.826;8.650;2023-04-20T00:22:45;95830.72;;;8.64;100.00
11085;BME280;5596;46.826;8.650;2023-04-20T00:25:12;95830.72;;;8.64;100.00
11085;BME280;5596;46.826;8.650;2023-04-20T00:27:40;95836.03;;;8.52;100.00
11085;BME280;5596;46.826;8.650;2023-04-20T00:30:08;95826.47;;;8.56;100.00
11085;BME280;5596;46.826;8.650;2023-04-20T00:32:35;95821.06;;;8.45;100.00
11085;BME280;5596;46.826;8.650;2023-04-20T00:35:02;95821.66;;;8.47;100.00
11085;BME280;5596;46.826;8.650;2023-04-20T00:37:29;95813.59;;;8.47;100.00
11085;BME280;5596;46.826;8.650;2023-04-20T00:39:56;95813.47;;;8.42;100.00
11085;BME280;5596;46.826;8.650;2023-04-20T00:42:23;95814.34;;;8.35;100.00
11085;BME280;5596;46.826;8.650;2023-04-20T00:44:51;95805.03;;;8.38;100.00
11085;BME280;5596;46.826;8.650;2023-04-20T00:47:18;95793.44;;;8.38;100.00
11085;BME280;5596;46.826;8.650;2023-04-20T00:49:45;95801.13;;;8.34;100.00
11085;BME280;5596;46.826;8.650;2023-04-20T00:52:12;95786.63;;;8.35;100.00
11085;BME280;5596;46.826;8.650;2023-04-20T00:54:39;95787.94;;;8.32;100.00
11085;BME280;5596;46.826;8.650;2023-04-20T00:57:06;95789.19;;;8.30;100.00
11085;BME280;5596;46.826;8.650;2023-04-20T00:59:33;95793.44;;;8.38;100.00
11085;BME280;5596;46.826;8.650;2023-04-20T01:02:02;95792.50;;;8.32;100.00
11085;BME280;5596;46.826;8.650;2023-04-20T01:04:28;95797.91;;;8.25;100.00
11085;BME280;5596;46.826;8.650;2023-04-20T01:06:57;95795.94;;;8.21;100.00
11085;BME280;5596;46.826;8.650;2023-04-20T01:09:24;95789.72;;;8.20;100.00
11085;BME280;5596;46.826;8.650;2023-04-20T01:11:50;95792.63;;;8.19;100.00
11085;BME280;5596;46.826;8.650;2023-04-20T01:14:17;95785.72;;;8.11;100.00
11085;BME280;5596;46.826;8.650;2023-04-20T01:16:44;95781.97;;;8.12;100.00
11085;BME280;5596;46.826;8.650;2023-04-20T01:19:12;95783.34;;;8.03;100.00
11085;BME280;5596;46.826;8.650;2023-04-20T01:21:39;95789.16;;;8.00;100.00
11085;BME280;5596;46.826;8.650;2023-04-20T01:24:07;95782.97;;;7.99;100.00
11085;BME280;5596;46.826;8.650;2023-04-20T01:26:34;95775.88;;;8.05;100.00
11085;BME280;5596;46.826;8.650;2023-04-20T01:29:01;95774.25;;;8.04;100.00
11085;BME280;5596;46.826;8.650;2023-04-20T01:31:28;95767.22;;;8.03;100.00
11085;BME280;5596;46.826;8.650;2023-04-20T01:33:56;95772.06;;;8.13;100.00
11085;BME280;5596;46.826;8.650;2023-04-20T01:36:23;95757.06;;;8.05;100.00
11085;BME280;5596;46.826;8.650;2023-04-20T01:38:50;95763.25;;;8.06;100.00
11085;BME280;5596;46.826;8.650;2023-04-20T01:41:18;95762.28;;;8.00;100.00
11085;BME280;5596;46.826;8.650;2023-04-20T01:43:47;95760.69;;;7.99;100.00
11085;BME280;5596;46.826;8.650;2023-04-20T01:46:14;95762.38;;;7.93;100.00
11085;BME280;5596;46.826;8.650;2023-04-20T01:48:40;95760.28;;;7.95;100.00
11085;BME280;5596;46.826;8.650;2023-04-20T01:51:07;95757.72;;;7.89;100.00
11085;BME280;5596;46.826;8.650;2023-04-20T01:53:34;95760.41;;;7.89;100.00
11085;BME280;5596;46.826;8.650;2023-04-20T01:56:01;95750.69;;;7.88;100.00
11085;BME280;5596;46.826;8.650;2023-04-20T01:58:29;95752.78;;;7.86;100.00
11085;BME280;5596;46.826;8.650;2023-04-20T02:00:55;95747.41;;;7.86;100.00
11085;BME280;5596;46.826;8.650;2023-04-20T02:03:23;95751.00;;;7.80;100.00
11085;BME280;5596;46.826;8.650;2023-04-20T02:05:50;95747.19;;;7.87;100.00
11085;BME280;5596;46.826;8.650;2023-04-20T02:08:16;95752.19;;;7.84;100.00
11085;BME280;5596;46.826;8.650;2023-04-20T02:10:43;95749.75;;;7.82;100.00
11085;BME280;5596;46.826;8.650;2023-04-20T02:13:11;95749.38;;;7.79;100.00
11085;BME280;5596;46.826;8.650;2023-04-20T02:15:39;95740.69;;;7.77;100.00
11085;BME280;5596;46.826;8.650;2023-04-20T02:18:06;95742.53;;;7.65;100.00
11085;BME280;5596;46.826;8.650;2023-04-20T02:20:33;95749.59;;;7.59;100.00
11085;BME280;5596;46.826;8.650;2023-04-20T02:23:00;95744.03;;;7.60;100.00
11085;BME280;5596;46.826;8.650;2023-04-20T02:25:26;95740.50;;;7.60;100.00
11085;BME280;5596;46.826;8.650;2023-04-20T02:27:54;95732.66;;;7.58;100.00
11085;BME280;5596;46.826;8.650;2023-04-20T02:30:21;95736.03;;;7.54;100.00
11085;BME280;5596;46.826;8.650;2023-04-20T02:32:49;95732.75;;;7.52;100.00
11085;BME280;5596;46.826;8.650;2023-04-20T02:35:16;95729.13;;;7.46;100.00
11085;BME280;5596;46.826;8.650;2023-04-20T02:37:43;95723.38;;;7.43;100.00
11085;BME280;5596;46.826;8.650;2023-04-20T02:40:11;95723.59;;;7.41;100.00
11085;BME280;5596;46.826;8.650;2023-04-20T02:42:38;95727.19;;;7.35;100.00
11085;BME280;5596;46.826;8.650;2023-04-20T02:45:08;95721.38;;;7.38;100.00
11085;BME280;5596;46.826;8.650;2023-04-20T02:47:35;95713.88;;;7.40;100.00
11085;BME280;5596;46.826;8.650;2023-04-20T02:50:05;95720.47;;;7.44;100.00
11085;BME280;5596;46.826;8.650;2023-04-20T02:52:40;95711.97;;;7.47;100.00
11085;BME280;5596;46.826;8.650;2023-04-20T02:55:07;95709.28;;;7.47;100.00
11085;BME280;5596;46.826;8.650;2023-04-20T02:57:34;95708.22;;;7.48;100.00
11085;BME280;5596;46.826;8.650;2023-04-20T03:00:01;95716.13;;;7.43;100.00
11085;BME280;5596;46.826;8.650;2023-04-20T03:02:41;95706.91;;;7.39;100.00
11085;BME280;5596;46.826;8.650;2023-04-20T03:05:09;95710.47;;;7.33;100.00
11085;BME280;5596;46.826;8.650;2023-04-20T03:07:41;95708.69;;;7.27;100.00
11085;BME280;5596;46.826;8.650;2023-04-20T03:10:10;95706.38;;;7.31;100.00
11085;BME280;5596;46.826;8.650;2023-04-20T03:12:49;95702.88;;;7.30;100.00
11085;BME280;5596;46.826;8.650;2023-04-20T03:15:30;95694.75;;;7.37;100.00
11085;BME280;5596;46.826;8.650;2023-04-20T03:18:05;95704.97;;;7.28;100.00
11085;BME280;5596;46.826;8.650;2023-04-20T03:20:33;95697.13;;;7.27;100.00
11085;BME280;5596;46.826;8.650;2023-04-20T03:23:00;95698.16;;;7.26;100.00
11085;BME280;5596;46.826;8.650;2023-04-20T03:25:26;95693.19;;;7.29;100.00
11085;BME280;5596;46.826;8.650;2023-04-20T03:28:05;95689.47;;;7.30;100.00
11085;BME280;5596;46.826;8.650;2023-04-20T03:30:34;95687.94;;;7.34;100.00
11085;BME280;5596;46.826;8.650;2023-04-20T03:33:11;95693.09;;;7.36;100.00
11085;BME280;5596;46.826;8.650;2023-04-20T03:35:39;95684.84;;;7.19;100.00
11085;BME280;5596;46.826;8.650;2023-04-20T03:38:07;95680.38;;;7.13;100.00
11085;BME280;5596;46.826;8.650;2023-04-20T03:40:35;95680.38;;;7.13;100.00
11085;BME280;5596;46.826;8.650;2023-04-20T03:43:03;95681.03;;;7.08;100.00
11085;BME280;5596;46.826;8.650;2023-04-20T03:45:30;95683.38;;;7.05;100.00
11085;BME280;5596;46.826;8.650;2023-04-20T03:47:56;95675.88;;;7.07;100.00
11085;BME280;5596;46.826;8.650;2023-04-20T03:50:24;95678.34;;;7.08;100.00
11085;BME280;5596;46.826;8.650;2023-04-20T03:52:52;95678.94;;;7.10;100.00
11085;BME280;5596;46.826;8.650;2023-04-20T03:55:20;95675.00;;;7.13;100.00
11085;BME280;5596;46.826;8.650;2023-04-20T03:57:53;95677.00;;;7.17;100.00
11085;BME280;5596;46.826;8.650;2023-04-20T04:00:21;95673.06;;;7.20;100.00
11085;BME280;5596;46.826;8.650;2023-04-20T04:02:52;95676.78;;;7.19;100.00
11085;BME280;5596;46.826;8.650;2023-04-20T04:05:23;95669.78;;;7.18;100.00
11085;BME280;5596;46.826;8.650;2023-04-20T04:07:52;95666.72;;;7.14;100.00
11085;BME280;5596;46.826;8.650;2023-04-20T04:10:19;95665.00;;;7.02;100.00
11085;BME280;5596;46.826;8.650;2023-04-20T04:12:47;95662.75;;;6.99;100.00
11085;BME280;5596;46.826;8.650;2023-04-20T04:15:14;95665.63;;;7.04;100.00
11085;BME280;5596;46.826;8.650;2023-04-20T04:17:49;95670.16;;;7.03;100.00
11085;BME280;5596;46.826;8.650;2023-04-20T04:20:17;95672.16;;;7.08;100.00
11085;BME280;5596;46.826;8.650;2023-04-20T04:22:44;95665.31;;;7.12;100.00
11085;BME280;5596;46.826;8.650;2023-04-20T04:25:30;95655.59;;;7.11;100.00
11085;BME280;5596;46.826;8.650;2023-04-20T04:27:58;95662.63;;;7.12;100.00
11085;BME280;5596;46.826;8.650;2023-04-20T04:30:27;95655.22;;;7.07;100.00
11085;BME280;5596;46.826;8.650;2023-04-20T04:32:54;95654.28;;;7.02;100.00
11085;BME280;5596;46.826;8.650;2023-04-20T04:35:21;95655.84;;;7.09;100.00
11085;BME280;5596;46.826;8.650;2023-04-20T04:37:49;95658.91;;;7.13;100.00
11085;BME280;5596;46.826;8.650;2023-04-20T04:40:17;95656.78;;;7.15;100.00
11085;BME280;5596;46.826;8.650;2023-04-20T04:42:47;95652.47;;;7.14;100.00
11085;BME280;5596;46.826;8.650;2023-04-20T04:45:16;95647.34;;;7.12;100.00
11085;BME280;5596;46.826;8.650;2023-04-20T04:47:44;95646.50;;;7.12;100.00
11085;BME280;5596;46.826;8.650;2023-04-20T04:50:11;95653.53;;;7.13;100.00
11085;BME280;5596;46.826;8.650;2023-04-20T04:52:37;95652.47;;;7.14;100.00
11085;BME280;5596;46.826;8.650;2023-04-20T04:55:05;95653.53;;;7.13;100.00
11085;BME280;5596;46.826;8.650;2023-04-20T04:57:33;95649.19;;;7.12;100.00
11085;BME280;5596;46.826;8.650;2023-04-20T05:00:02;95647.69;;;7.16;100.00
11085;BME280;5596;46.826;8.650;2023-04-20T05:02:31;95651.06;;;7.11;100.00
11085;BME280;5596;46.826;8.650;2023-04-20T05:04:58;95644.56;;;7.01;100.00
11085;BME280;5596;46.826;8.650;2023-04-20T05:07:25;95638.38;;;7.00;100.00
11085;BME280;5596;46.826;8.650;2023-04-20T05:09:52;95642.06;;;7.06;100.00
11085;BME280;5596;46.826;8.650;2023-04-20T05:12:18;95646.34;;;7.07;100.00
11085;BME280;5596;46.826;8.650;2023-04-20T05:14:45;95648.16;;;7.13;100.00
11085;BME280;5596;46.826;8.650;2023-04-20T05:17:13;95641.16;;;7.12;100.00
11085;BME280;5596;46.826;8.650;2023-04-20T05:19:40;95646.72;;;7.10;100.00
11085;BME280;5596;46.826;8.650;2023-04-20T05:22:07;95649.41;;;7.10;100.00
11085;BME280;5596;46.826;8.650;2023-04-20T05:24:34;95650.38;;;7.16;100.00
11085;BME280;5596;46.826;8.650;2023-04-20T05:27:00;95655.16;;;7.14;100.00
11085;BME280;5596;46.826;8.650;2023-04-20T05:29:28;95654.69;;;7.17;100.00
11085;BME280;5596;46.826;8.650;2023-04-20T05:31:55;95642.31;;;7.16;100.00
11085;BME280;5596;46.826;8.650;2023-04-20T05:34:23;95643.53;;;7.20;100.00
11085;BME280;5596;46.826;8.650;2023-04-20T05:39:17;95643.34;;;7.15;100.00
11085;BME280;5596;46.826;8.650;2023-04-20T05:41:43;95648.28;;;7.18;100.00
11085;BME280;5596;46.826;8.650;2023-04-20T05:44:10;95650.53;;;7.21;100.00
11085;BME280;5596;46.826;8.650;2023-04-20T05:46:37;95636.06;;;7.22;100.00
11085;BME280;5596;46.826;8.650;2023-04-20T05:49:04;95636.56;;;7.31;100.00
11085;BME280;5596;46.826;8.650;2023-04-20T05:51:32;95638.66;;;7.29;100.00
11085;BME280;5596;46.826;8.650;2023-04-20T05:53:59;95637.69;;;7.23;100.00
11085;BME280;5596;46.826;8.650;2023-04-20T05:56:26;95633.94;;;7.24;100.00
11085;BME280;5596;46.826;8.650;2023-04-20T05:58:53;95628.13;;;7.27;100.00
11085;BME280;5596;46.826;8.650;2023-04-20T06:01:20;95638.16;;;7.20;100.00
11085;BME280;5596;46.826;8.650;2023-04-20T06:03:46;95631.56;;;7.16;100.00
11085;BME280;5596;46.826;8.650;2023-04-20T06:06:13;95633.31;;;7.10;100.00
11085;BME280;5596;46.826;8.650;2023-04-20T06:08:42;95629.38;;;7.13;100.00
11085;BME280;5596;46.826;8.650;2023-04-20T06:11:08;95636.94;;;7.16;100.00
11085;BME280;5596;46.826;8.650;2023-04-20T06:13:35;95640.38;;;7.23;100.00
11085;BME280;5596;46.826;8.650;2023-04-20T06:16:02;95643.19;;;7.28;100.00
11085;BME280;5596;46.826;8.650;2023-04-20T06:18:33;95639.91;;;7.26;100.00
11085;BME280;5596;46.826;8.650;2023-04-20T06:21:00;95640.53;;;7.28;100.00
11085;BME280;5596;46.826;8.650;2023-04-20T06:23:27;95631.88;;;7.26;100.00
11085;BME280;5596;46.826;8.650;2023-04-20T06:25:55;95635.97;;;7.29;100.00
11085;BME280;5596;46.826;8.650;2023-04-20T06:28:22;95628.13;;;7.27;100.00
11085;BME280;5596;46.826;8.650;2023-04-20T06:30:48;95642.16;;;7.29;100.00
11085;BME280;5596;46.826;8.650;2023-04-20T06:33:15;95638.28;;;7.25;100.00
11085;BME280;5596;46.826;8.650;2023-04-20T06:35:42;95643.53;;;7.20;100.00
11085;BME280;5596;46.826;8.650;2023-04-20T06:38:09;95630.69;;;7.22;100.00
11085;BME280;5596;46.826;8.650;2023-04-20T06:40:35;95635.59;;;7.25;100.00
11085;BME280;5596;46.826;8.650;2023-04-20T06:43:03;95639.31;;;7.24;100.00
11085;BME280;5596;46.826;8.650;2023-04-20T06:45:30;95638.16;;;7.20;100.00
11085;BME280;5596;46.826;8.650;2023-04-20T06:47:57;95641.16;;;7.12;100.00
11085;BME280;5596;46.826;8.650;2023-04-20T06:50:24;95641.75;;;7.14;100.00
11085;BME280;5596;46.826;8.650;2023-04-20T06:52:51;95641.91;;;7.01;100.00
11085;BME280;5596;46.826;8.650;2023-04-20T06:55:17;95640.84;;;7.02;100.00
11085;BME280;5596;46.826;8.650;2023-04-20T06:57:44;95640.25;;;7.00;100.00
11085;BME280;5596;46.826;8.650;2023-04-20T07:00:13;95638.91;;;6.91;100.00
11085;BME280;5596;46.826;8.650;2023-04-20T07:02:43;95639.38;;;6.88;100.00
11085;BME280;5596;46.826;8.650;2023-04-20T07:05:10;95638.91;;;6.91;100.00
11085;BME280;5596;46.826;8.650;2023-04-20T07:07:37;95643.53;;;6.83;100.00
11085;BME280;5596;46.826;8.650;2023-04-20T07:10:04;95643.19;;;6.80;100.00
11085;BME280;5596;46.826;8.650;2023-04-20T07:12:31;95646.53;;;6.75;100.00
11085;BME280;5596;46.826;8.650;2023-04-20T07:14:59;95641.16;;;6.75;100.00
11085;BME280;5596;46.826;8.650;2023-04-20T07:17:28;95649.22;;;6.75;100.00
11085;BME280;5596;46.826;8.650;2023-04-20T07:19:55;95648.84;;;6.72;100.00
11085;BME280;5596;46.826;8.650;2023-04-20T07:22:22;95641.16;;;6.75;100.00
11085;BME280;5596;46.826;8.650;2023-04-20T07:24:49;95639.91;;;6.78;100.00
11085;BME280;5596;46.826;8.650;2023-04-20T07:27:16;95640.34;;;6.75;100.00
11085;BME280;5596;46.826;8.650;2023-04-20T07:29:43;95638.25;;;6.77;100.00
11085;BME280;5596;46.826;8.650;2023-04-20T07:32:09;95647.34;;;6.76;100.00
11085;BME280;5596;46.826;8.650;2023-04-20T07:34:37;95632.50;;;6.73;100.00
11085;BME280;5596;46.826;8.650;2023-04-20T07:37:04;95631.94;;;6.71;100.00
11085;BME280;5596;46.826;8.650;2023-04-20T07:39:31;95642.06;;;6.69;100.00
11085;BME280;5596;46.826;8.650;2023-04-20T07:41:58;95634.63;;;6.71;100.00
11085;BME280;5596;46.826;8.650;2023-04-20T07:44:24;95643.97;;;6.80;100.00
11085;BME280;5596;46.826;8.650;2023-04-20T07:46:51;95640.63;;;6.85;100.00
11085;BME280;5596;46.826;8.650;2023-04-20T07:49:19;95640.19;;;6.88;100.00
11085;BME280;5596;46.826;8.650;2023-04-20T07:51:47;95638.91;;;6.91;100.00
11085;BME280;5596;46.826;8.650;2023-04-20T07:54:14;95640.13;;;6.95;100.00
11085;BME280;5596;46.826;8.650;2023-04-20T07:56:40;95639.44;;;6.99;100.00
11085;BME280;5596;46.826;8.650;2023-04-20T07:59:07;95642.19;;;7.11;100.00
11085;BME280;5596;46.826;8.650;2023-04-20T08:01:34;95634.75;;;7.13;100.00
11085;BME280;5596;46.826;8.650;2023-04-20T08:04:01;95638.47;;;7.12;100.00
11085;BME280;5596;46.826;8.650;2023-04-20T08:06:28;95635.78;;;7.12;100.00
11085;BME280;5596;46.826;8.650;2023-04-20T08:08:57;95633.53;;;7.09;100.00
11085;BME280;5596;46.826;8.650;2023-04-20T08:11:24;95636.13;;;7.15;100.00
11085;BME280;5596;46.826;8.650;2023-04-20T08:13:51;95626.38;;;7.21;100.00
11085;BME280;5596;46.826;8.650;2023-04-20T08:16:18;95625.69;;;7.26;100.00
11085;BME280;5596;46.826;8.650;2023-04-20T08:18:45;95624.41;;;7.28;100.00
11085;BME280;5596;46.826;8.650;2023-04-20T08:21:11;95626.34;;;7.39;100.00
11085;BME280;5596;46.826;8.650;2023-04-20T08:23:39;95625.19;;;7.47;100.00
11085;BME280;5596;46.826;8.650;2023-04-20T08:26:07;95623.06;;;7.49;100.00
11085;BME280;5596;46.826;8.650;2023-04-20T08:28:34;95627.78;;;7.53;100.00
11085;BME280;5596;46.826;8.650;2023-04-20T08:31:01;95631.06;;;7.55;100.00
11085;BME280;5596;46.826;8.650;2023-04-20T08:33:27;95632.38;;;7.65;100.00
11085;BME280;5596;46.826;8.650;2023-04-20T08:35:54;95638.69;;;7.70;100.00
11085;BME280;5596;46.826;8.650;2023-04-20T08:38:21;95638.91;;;7.69;100.00
11085;BME280;5596;46.826;8.650;2023-04-20T08:40:48;95641.38;;;7.70;100.00
11085;BME280;5596;46.826;8.650;2023-04-20T08:43:16;95645.31;;;7.68;100.00
11085;BME280;5596;46.826;8.650;2023-04-20T08:45:45;95648.16;;;7.73;100.00
11085;BME280;5596;46.826;8.650;2023-04-20T08:48:13;95642.88;;;7.66;100.00
11085;BME280;5596;46.826;8.650;2023-04-20T08:50:42;95641.31;;;7.58;100.00
11085;BME280;5596;46.826;8.650;2023-04-20T08:53:15;95635.13;;;7.58;100.00
11085;BME280;5596;46.826;8.650;2023-04-20T08:55:42;95636.66;;;7.66;100.00
11085;BME280;5596;46.826;8.650;2023-04-20T08:58:08;95643.84;;;7.72;100.00
11085;BME280;5596;46.826;8.650;2023-04-20T09:00:45;95642.78;;;7.73;100.00
11085;BME280;5596;46.826;8.650;2023-04-20T09:03:12;95632.03;;;7.73;100.00
11085;BME280;5596;46.826;8.650;2023-04-20T09:05:39;95636.50;;;7.79;100.00
11085;BME280;5596;46.826;8.650;2023-04-20T09:08:07;95635.44;;;7.80;100.00
11085;BME280;5596;46.826;8.650;2023-04-20T09:10:38;95627.38;;;7.80;100.00
11085;BME280;5596;46.826;8.650;2023-04-20T09:13:05;95621.91;;;7.86;100.00
11085;BME280;5596;46.826;8.650;2023-04-20T09:15:32;95617.34;;;7.87;100.00
11085;BME280;5596;46.826;8.650;2023-04-20T09:18:09;95623.09;;;7.90;100.00
11085;BME280;5596;46.826;8.650;2023-04-20T09:20:36;95614.31;;;7.95;100.00
11085;BME280;5596;46.826;8.650;2023-04-20T09:23:09;95610.34;;;7.97;100.00
11085;BME280;5596;46.826;8.650;2023-04-20T09:25:36;95610.59;;;7.96;100.00
11085;BME280;5596;46.826;8.650;2023-04-20T09:28:05;95606.38;;;8.00;100.00
11085;BME280;5596;46.826;8.650;2023-04-20T09:30:37;95606.50;;;8.05;100.00
11085;BME280;5596;46.826;8.650;2023-04-20T09:33:05;95601.47;;;8.20;100.00
11085;BME280;5596;46.826;8.650;2023-04-20T09:35:35;95599.38;;;8.22;100.00
11085;BME280;5596;46.826;8.650;2023-04-20T09:38:02;95605.22;;;8.19;100.00
11085;BME280;5596;46.826;8.650;2023-04-20T09:40:29;95606.97;;;8.25;100.00
11085;BME280;5596;46.826;8.650;2023-04-20T09:42:58;95598.13;;;8.48;100.00
11085;BME280;5596;46.826;8.650;2023-04-20T09:45:27;95598.44;;;8.52;100.00
11085;BME280;5596;46.826;8.650;2023-04-20T09:47:54;95594.38;;;8.49;100.00
11085;BME280;5596;46.826;8.650;2023-04-20T09:50:30;95597.88;;;8.38;100.00
11085;BME280;5596;46.826;8.650;2023-04-20T09:52:57;95595.19;;;8.38;100.00
11085;BME280;5596;46.826;8.650;2023-04-20T09:55:25;95591.22;;;8.41;100.00
11085;BME280;5596;46.826;8.650;2023-04-20T09:57:53;95596.94;;;8.44;100.00
11085;BME280;5596;46.826;8.650;2023-04-20T10:00:20;95595.66;;;8.47;100.00
11085;BME280;5596;46.826;8.650;2023-04-20T10:02:48;95595.06;;;8.45;100.00
11085;BME280;5596;46.826;8.650;2023-04-20T10:05:15;95591.31;;;8.46;100.00
11085;BME280;5596;46.826;8.650;2023-04-20T10:07:43;95601.41;;;8.39;100.00
11085;BME280;5596;46.826;8.650;2023-04-20T10:10:11;95596.25;;;8.37;100.00
11085;BME280;5596;46.826;8.650;2023-04-20T10:12:48;95603.97;;;8.33;100.00
11085;BME280;5596;46.826;8.650;2023-04-20T10:15:15;95601.28;;;8.33;100.00
11085;BME280;5596;46.826;8.650;2023-04-20T10:17:42;95608.88;;;8.37;100.00
11085;BME280;5596;46.826;8.650;2023-04-20T10:20:19;95598.44;;;8.28;100.00
11085;BME280;5596;46.826;8.650;2023-04-20T10:22:47;95602.66;;;8.24;100.00
11085;BME280;5596;46.826;8.650;2023-04-20T10:25:14;95611.09;;;8.16;100.00
11085;BME280;5596;46.826;8.650;2023-04-20T10:27:51;95609.06;;;8.12;100.00
11085;BME280;5596;46.826;8.650;2023-04-20T10:30:18;95609.06;;;8.12;100.00
11085;BME280;5596;46.826;8.650;2023-04-20T10:32:45;95599.13;;;8.12;100.00
11085;BME280;5596;46.826;8.650;2023-04-20T10:35:12;95602.41;;;8.14;100.00
11085;BME280;5596;46.826;8.650;2023-04-20T10:37:46;95603.13;;;8.21;100.00
11085;BME280;5596;46.826;8.650;2023-04-20T10:40:14;95606.28;;;8.30;100.00
11085;BME280;5596;46.826;8.650;2023-04-20T10:42:41;95597.78;;;8.33;100.00
11085;BME280;5596;46.826;8.650;2023-04-20T10:45:08;95603.13;;;8.45;100.00
11085;BME280;5596;46.826;8.650;2023-04-20T10:47:37;95602.69;;;8.48;100.00
11085;BME280;5596;46.826;8.650;2023-04-20T10:50:08;95592.38;;;8.45;100.00
11085;BME280;5596;46.826;8.650;2023-04-20T10:52:36;95584.53;;;8.55;100.00
11085;BME280;5596;46.826;8.650;2023-04-20T10:55:03;95590.97;;;8.54;100.00
11085;BME280;5596;46.826;8.650;2023-04-20T10:57:32;95590.38;;;8.52;100.00
11085;BME280;5596;46.826;8.650;2023-04-20T11:00:11;95585.72;;;8.47;100.00
11085;BME280;5596;46.826;8.650;2023-04-20T11:02:44;95588.19;;;8.49;100.00
11085;BME280;5596;46.826;8.650;2023-04-20T11:05:11;95576.81;;;8.58;100.00
11085;BME280;5596;46.826;8.650;2023-04-20T11:07:45;95572.00;;;8.60;100.00
11085;BME280;5596;46.826;8.650;2023-04-20T11:10:13;95575.50;;;8.61;100.00
11085;BME280;5596;46.826;8.650;2023-04-20T11:12:41;95581.72;;;8.61;100.00
11085;BME280;5596;46.826;8.650;2023-04-20T11:15:08;95575.28;;;8.74;100.00
11085;BME280;5596;46.826;8.650;2023-04-20T11:17:36;95574.63;;;8.95;100.00
11085;BME280;5596;46.826;8.650;2023-04-20T11:20:03;95567.41;;;9.13;100.00
11085;BME280;5596;46.826;8.650;2023-04-20T11:22:33;95577.13;;;9.14;100.00
11085;BME280;5596;46.826;8.650;2023-04-20T11:25:11;95571.75;;;9.14;100.00
11085;BME280;5596;46.826;8.650;2023-04-20T11:27:45;95567.66;;;9.11;100.00
11085;BME280;5596;46.826;8.650;2023-04-20T11:30:14;95571.22;;;9.00;100.00
11085;BME280;5596;46.826;8.650;2023-04-20T11:32:52;95559.44;;;8.89;100.00
11085;BME280;5596;46.826;8.650;2023-04-20T11:35:18;95555.31;;;8.87;100.00
11085;BME280;5596;46.826;8.650;2023-04-20T11:37:45;95557.25;;;8.75;100.00
11085;BME280;5596;46.826;8.650;2023-04-20T11:40:15;95553.16;;;8.72;100.00
11085;BME280;5596;46.826;8.650;2023-04-20T11:42:42;95560.53;;;8.65;100.00
11085;BME280;5596;46.826;8.650;2023-04-20T11:45:11;95555.03;;;8.60;100.00
11085;BME280;5596;46.826;8.650;2023-04-20T11:47:38;95556.91;;;8.59;100.00
11085;BME280;5596;46.826;8.650;2023-04-20T11:50:06;95554.94;;;8.55;100.00
11085;BME280;5596;46.826;8.650;2023-04-20T11:52:34;95563.00;;;8.55;100.00
11085;BME280;5596;46.826;8.650;2023-04-20T11:55:01;95559.97;;;8.51;100.00
11085;BME280;5596;46.826;8.650;2023-04-20T11:57:27;95566.66;;;8.49;100.00
11085;BME280;5596;46.826;8.650;2023-04-20T11:59:54;95563.50;;;8.40;100.00
11085;BME280;5596;46.826;8.650;2023-04-20T12:02:22;95567.44;;;8.26;100.00
11085;BME280;5596;46.826;8.650;2023-04-20T12:04:49;95577.63;;;8.24;100.00
11085;BME280;5596;46.826;8.650;2023-04-20T12:07:16;95580.78;;;8.09;100.00
11085;BME280;5596;46.826;8.650;2023-04-20T12:09:43;95588.16;;;7.90;100.00
11085;BME280;5596;46.826;8.650;2023-04-20T12:12:09;95584.84;;;7.77;100.00
11085;BME280;5596;46.826;8.650;2023-04-20T12:14:36;95586.44;;;7.66;100.00
11085;BME280;5596;46.826;8.650;2023-04-20T12:17:03;95584.47;;;7.62;100.00
11085;BME280;5596;46.826;8.650;2023-04-20T12:19:32;95581.78;;;7.62;100.00
11085;BME280;5596;46.826;8.650;2023-04-20T12:21:58;95586.56;;;7.59;100.00
11085;BME280;5596;46.826;8.650;2023-04-20T12:24:25;95578.16;;;7.56;100.00
11085;BME280;5596;46.826;8.650;2023-04-20T12:26:52;95585.88;;;7.64;100.00
11085;BME280;5596;46.826;8.650;2023-04-20T12:29:19;95583.88;;;7.59;100.00
11085;BME280;5596;46.826;8.650;2023-04-20T12:31:46;95585.00;;;7.52;100.00
11085;BME280;5596;46.826;8.650;2023-04-20T12:34:12;95590.63;;;7.50;100.00
11085;BME280;5596;46.826;8.650;2023-04-20T12:36:41;95588.25;;;7.42;100.00
11085;BME280;5596;46.826;8.650;2023-04-20T12:39:08;95599.91;;;7.36;100.00
11085;BME280;5596;46.826;8.650;2023-04-20T12:41:36;95603.66;;;7.35;100.00
11085;BME280;5596;46.826;8.650;2023-04-20T12:44:02;95593.94;;;7.34;100.00
11085;BME280;5596;46.826;8.650;2023-04-20T12:46:29;95600.28;;;7.40;100.00
11085;BME280;5596;46.826;8.650;2023-04-20T12:48:56;95611.09;;;7.33;100.00
11085;BME280;5596;46.826;8.650;2023-04-20T12:51:23;95600.53;;;7.38;100.00
11085;BME280;5596;46.826;8.650;2023-04-20T12:53:51;95600.38;;;7.33;100.00
11085;BME280;5596;46.826;8.650;2023-04-20T12:56:18;95600.16;;;7.35;100.00
11085;BME280;5596;46.826;8.650;2023-04-20T12:58:45;95602.59;;;7.36;100.00
11085;BME280;5596;46.826;8.650;2023-04-20T13:01:11;95598.47;;;7.22;100.00
11085;BME280;5596;46.826;8.650;2023-04-20T13:03:38;95617.28;;;7.22;100.00
11085;BME280;5596;46.826;8.650;2023-04-20T13:06:06;95620.41;;;7.19;100.00
11085;BME280;5596;46.826;8.650;2023-04-20T13:08:34;95622.47;;;7.17;100.00
11085;BME280;5596;46.826;8.650;2023-04-20T13:11:03;95618.41;;;7.14;100.00
11085;BME280;5596;46.826;8.650;2023-04-20T13:13:30;95635.63;;;7.07;100.00
11085;BME280;5596;46.826;8.650;2023-04-20T13:15:57;95627.31;;;6.97;100.00